Map

Track Data

SID SEASON NUMBER BASIN SUBBASIN NAME ISO_TIME NATURE LAT LON WMO_WIND WMO_PRES WMO_AGENCY TRACK_TYPE DIST2LAND LANDFALL IFLAG USA_AGENCY USA_ATCF_ID USA_LAT USA_LON USA_RECORD USA_STATUS USA_WIND USA_PRES USA_SSHS USA_R34_NE USA_R34_SE USA_R34_SW USA_R34_NW USA_R50_NE USA_R50_SE USA_R50_SW USA_R50_NW USA_R64_NE USA_R64_SE USA_R64_SW USA_R64_NW USA_POCI USA_ROCI USA_RMW USA_EYE TOKYO_LAT TOKYO_LON TOKYO_GRADE TOKYO_WIND TOKYO_PRES TOKYO_R50_DIR TOKYO_R50_LONG TOKYO_R50_SHORT TOKYO_R30_DIR TOKYO_R30_LONG TOKYO_R30_SHORT TOKYO_LAND CMA_LAT CMA_LON CMA_CAT CMA_WIND CMA_PRES HKO_LAT HKO_LON HKO_CAT HKO_WIND HKO_PRES NEWDELHI_LAT NEWDELHI_LON NEWDELHI_GRADE NEWDELHI_WIND NEWDELHI_PRES NEWDELHI_CI NEWDELHI_DP NEWDELHI_POCI REUNION_LAT REUNION_LON REUNION_TYPE REUNION_WIND REUNION_PRES REUNION_TNUM REUNION_CI REUNION_RMW REUNION_R34_NE REUNION_R34_SE REUNION_R34_SW REUNION_R34_NW REUNION_R50_NE REUNION_R50_SE REUNION_R50_SW REUNION_R50_NW REUNION_R64_NE REUNION_R64_SE REUNION_R64_SW REUNION_R64_NW BOM_LAT BOM_LON BOM_TYPE BOM_WIND BOM_PRES BOM_TNUM BOM_CI BOM_RMW BOM_R34_NE BOM_R34_SE BOM_R34_SW BOM_R34_NW BOM_R50_NE BOM_R50_SE BOM_R50_SW BOM_R50_NW BOM_R64_NE BOM_R64_SE BOM_R64_SW BOM_R64_NW BOM_ROCI BOM_POCI BOM_EYE BOM_POS_METHOD BOM_PRES_METHOD NADI_LAT NADI_LON NADI_CAT NADI_WIND NADI_PRES WELLINGTON_LAT WELLINGTON_LON WELLINGTON_WIND WELLINGTON_PRES DS824_LAT DS824_LON DS824_STAGE DS824_WIND DS824_PRES TD9636_LAT TD9636_LON TD9636_STAGE TD9636_WIND TD9636_PRES TD9635_LAT TD9635_LON TD9635_WIND TD9635_PRES TD9635_ROCI NEUMANN_LAT NEUMANN_LON NEUMANN_CLASS NEUMANN_WIND NEUMANN_PRES MLC_LAT MLC_LON MLC_CLASS MLC_WIND MLC_PRES USA_GUST BOM_GUST BOM_GUST_PER REUNION_GUST REUNION_GUST_PER USA_SEAHGT USA_SEARAD_NE USA_SEARAD_SE USA_SEARAD_SW USA_SEARAD_NW STORM_SPEED STORM_DIR
1953079S15119 1953 15 SI WA NOT_NAMED 1953-03-19 23:00:00 NR -15.0000 118.700 main 450 450 __________O___ -1 -15.0000 118.700 7 8 232
1953079S15119 1953 15 SI WA NOT_NAMED 1953-03-20 00:00:00 TS -15.0812 118.592 main 454 454 O________OP___ jtwc_sh SH161953 -15.1000 118.600 -1 -15.1000 118.600 TC -15.0623 118.583 7 4 206
1953079S15119 1953 15 SI WA NOT_NAMED 1953-03-20 01:00:00 TS -15.1183 118.642 1000 bom main 454 448 P_____O__PP___ SH161953 -15.1679 118.459 -1 -14.9000 119.900 1000 -15.1679 118.459 TC -15.1248 118.466 7 5 220
1953079S15119 1953 15 SI WA NOT_NAMED 1953-03-20 03:00:00 TS -15.2590 118.437 main 462 462 P_____P__PP___ SH161953 -15.3027 118.183 -1 -15.1439 119.613 999 -15.3027 118.183 TC -15.2510 118.230 7 7 232
1953079S15119 1953 15 SI WA NOT_NAMED 1953-03-20 06:00:00 TS -15.4851 118.158 main 471 471 O_____P__OP___ jtwc_sh SH161953 -15.5000 117.800 -1 -15.4924 119.161 999 -15.5000 117.800 TC -15.4461 117.863 7 6 224
1953079S15119 1953 15 SI WA NOT_NAMED 1953-03-20 07:00:00 TS -15.5622 118.136 999 bom main 476 476 P_____O__PP___ SH161953 -15.5639 117.685 -1 -15.6000 119.000 999 -15.5639 117.685 TC -15.5135 117.737 7 7 227
1953079S15119 1953 15 SI WA NOT_NAMED 1953-03-20 09:00:00 TS -15.7126 117.903 main 492 492 P_____P__PP___ SH161953 -15.6923 117.465 -1 -15.7986 118.660 -15.6923 117.465 TC -15.6530 117.475 7 8 238
1953079S15119 1953 15 SI WA NOT_NAMED 1953-03-20 11:00:00 TS -15.8636 117.645 main 495 495 P_____P__PO___ SH161953 -15.8275 117.231 -1 -15.9773 118.300 -15.8275 117.231 TC -15.8000 117.200 7 9 240
1953079S15119 1953 15 SI WA NOT_NAMED 1953-03-20 12:00:00 TS -15.9400 117.491 main 499 484 O_____P__OP___ jtwc_sh SH161953 -15.9000 117.100 -1 -16.0605 118.116 -15.9000 117.100 TC -15.8767 117.057 7 11 243
1953079S15119 1953 15 SI WA NOT_NAMED 1953-03-20 15:00:00 TS -16.1829 116.979 main 484 470 P_____P__PP___ SH161953 -16.1577 116.585 -1 -16.2908 117.560 -16.1577 116.585 TC -16.1142 116.615 7 11 244
1953079S15119 1953 15 SI WA NOT_NAMED 1953-03-20 18:00:00 TS -16.4160 116.492 main 470 450 O_____P__OP___ jtwc_sh SH161953 -16.4000 116.100 -1 -16.5025 117.021 -16.4000 116.100 TC -16.3507 116.186 7 9 243
1953079S15119 1953 15 SI WA NOT_NAMED 1953-03-20 21:00:00 TS -16.6141 116.106 main 451 442 P_____P__PP___ SH161953 -16.5648 115.797 -1 -16.7091 116.530 -16.5648 115.797 TC -16.5705 115.807 7 8 241
1953079S15119 1953 15 SI WA NOT_NAMED 1953-03-20 23:00:00 TS -16.7362 115.897 main 444 433 P_____P__PO___ SH161953 -16.6552 115.659 -1 -16.8506 116.243 -16.6552 115.659 TC -16.7000 115.600 7 7 237
1953079S15119 1953 15 SI WA NOT_NAMED 1953-03-21 00:00:00 TS -16.7958 115.807 main 435 435 O_____P__OP___ jtwc_sh SH161953 -16.7000 115.600 -1 -16.9241 116.116 -16.7000 115.600 TC -16.7549 115.521 7 6 234
1953079S15119 1953 15 SI WA NOT_NAMED 1953-03-21 01:00:00 TS -16.8583 115.721 995 bom main 427 419 P_____O__PP___ SH161953 -16.7526 115.536 -1 -17.0000 116.000 995 -16.7526 115.536 TC -16.8058 115.453 7 6 230
1953079S15119 1953 15 SI WA NOT_NAMED 1953-03-21 03:00:00 TS -16.9837 115.574 main 419 404 P_____P__PP___ SH161953 -16.8575 115.427 -1 -17.1618 115.802 992 -16.8575 115.427 TC -16.8977 115.346 7 5 225
1953079S15119 1953 15 SI WA NOT_NAMED 1953-03-21 06:00:00 TS -17.1661 115.400 main 404 404 O_____P__OP___ jtwc_sh SH161953 -17.0000 115.300 -1 -17.4131 115.566 988 -17.0000 115.300 TC -17.0176 115.235 7 5 222
1953079S15119 1953 15 SI WA NOT_NAMED 1953-03-21 07:00:00 TS -17.2219 115.351 987 bom main 404 397 P_____O__PP___ SH161953 -17.0364 115.264 -1 -17.5000 115.500 987 -17.0364 115.264 TC -17.0546 115.206 7 4 220
1953079S15119 1953 15 SI WA NOT_NAMED 1953-03-21 09:00:00 TS -17.3275 115.263 main 397 391 P_____P__PP___ SH161953 -17.1000 115.200 -1 -17.6648 115.378 -17.1000 115.200 TC -17.1269 115.154 7 4 217
1953079S15119 1953 15 SI WA NOT_NAMED 1953-03-21 11:00:00 TS -17.4341 115.186 main 391 380 P_____P__PO___ SH161953 -17.1636 115.136 -1 -17.8312 115.281 -17.1636 115.136 TC -17.2000 115.100 7 4 216
1953079S15119 1953 15 SI WA NOT_NAMED 1953-03-21 12:00:00 TS -17.4839 115.147 main 385 375 O_____P__OP___ jtwc_sh SH161953 -17.2000 115.100 -1 -17.9160 115.240 -17.2000 115.100 TC -17.2059 115.067 7 4 214
1953079S15119 1953 15 SI WA NOT_NAMED 1953-03-21 15:00:00 TS -17.6486 115.030 main 380 360 P_____P__PP___ SH161953 -17.3425 114.958 -1 -18.1813 115.144 -17.3425 114.958 TC -17.2090 114.970 7 4 212
1953079S15119 1953 15 SI WA NOT_NAMED 1953-03-21 18:00:00 TS -17.8397 114.914 main 365 352 O_____P__OP___ jtwc_sh SH161953 -17.5000 114.800 -1 -18.4710 115.071 -17.5000 114.800 TC -17.2605 114.862 7 4 209
1953079S15119 1953 15 SI WA NOT_NAMED 1953-03-21 21:00:00 TS -18.0317 114.811 main 352 334 P_____P__PP___ SH161953 -17.5524 114.679 -1 -18.7954 115.005 -17.5524 114.679 TC -17.4510 114.722 7 5 205
1953079S15119 1953 15 SI WA NOT_NAMED 1953-03-21 23:00:00 TS -18.2300 114.725 main 340 330 P_____P__PO___ SH161953 -17.6757 114.572 -1 -19.0361 114.957 -17.6757 114.572 TC -17.7000 114.600 7 7 202
1953079S15119 1953 15 SI WA NOT_NAMED 1953-03-22 00:00:00 TS -18.3705 114.666 main 320 316 O_____P__OP___ jtwc_sh SH161953 -17.8000 114.500 -1 -19.1650 114.930 -17.8000 114.500 TC -17.8876 114.500 7 10 203
1953079S15119 1953 15 SI WA NOT_NAMED 1953-03-22 01:00:00 TS -18.5414 114.589 970 bom main 316 291 P_____O__PP___ SH161953 -17.9821 114.399 -1 -19.3000 114.900 970 4 -17.9821 114.399 TC -18.1043 114.390 7 13 203
1953079S15119 1953 15 SI WA NOT_NAMED 1953-03-22 03:00:00 TS -18.9479 114.407 main 291 244 P_____P__PP___ SH161953 -18.4728 114.158 -1 -19.5502 114.800 970 -18.4728 114.158 TC -18.6107 114.152 7 15 201
1953079S15119 1953 15 SI WA NOT_NAMED 1953-03-22 06:00:00 TS -19.6769 114.134 main 238 168 O_____P__OP___ jtwc_sh SH161953 -19.4000 113.800 -1 -19.9664 114.642 970 -19.4000 113.800 TC -19.5007 113.794 7 16 197
1953079S15119 1953 15 SI WA NOT_NAMED 1953-03-22 09:00:00 TS -20.4699 113.908 main 156 102 P_____P__PP___ SH161953 -20.3924 113.518 -1 -20.4522 114.489 970 -20.3924 113.518 TC -20.4636 113.508 7 17 193
1953079S15119 1953 15 SI WA NOT_NAMED 1953-03-22 11:00:00 TS -21.0201 113.810 main 102 80 P_____P__PO___ SH161953 -21.0733 113.414 -1 -20.8260 114.398 970 -21.0733 113.414 TC -21.1000 113.400 7 17 188
1953079S15119 1953 15 SI WA NOT_NAMED 1953-03-22 12:00:00 TS -21.2904 113.789 main 70 30 O_____P__OP___ jtwc_sh SH161953 -21.4000 113.400 -1 -21.0304 114.358 970 -21.4000 113.400 TC -21.3966 113.403 7 16 182
1953079S15119 1953 15 SI WA NOT_NAMED 1953-03-22 13:40:00 TS -21.7329 113.796 970 bom main 30 15 P_____O__PP___ SH161953 -21.9038 113.450 -1 -21.4000 114.300 970 -21.9038 113.450 TC -21.8936 113.452 7 16 178
1953079S15119 1953 15 SI WA NOT_NAMED 1953-03-22 15:00:00 TS -22.0870 113.830 main 10 0 P_____P__PP___ SH161953 -22.2875 113.539 -1 -21.7281 114.263 970 -22.2875 113.539 TC -22.2891 113.525 7 16 173
1953079S15119 1953 15 SI WA NOT_NAMED 1953-03-22 18:00:00 TS -22.8702 113.952 970 bom main 0 0 O_____O__OP___ jtwc_sh SH161953 -23.1000 113.800 -1 -22.5000 114.200 970 -23.1000 113.800 TC -23.1511 113.761 7 16 172
1953079S15119 1953 15 SI WA NOT_NAMED 1953-03-22 21:00:00 TS -23.6427 114.060 main 0 0 P_____P__PP___ SH161953 -23.9100 114.007 -1 -23.2324 114.129 974 -23.9100 114.007 TC -23.9384 114.034 7 15 172
1953079S15119 1953 15 SI WA NOT_NAMED 1953-03-22 23:00:00 TS -24.1106 114.135 main 0 0 P_____P__PO___ SH161953 -24.3895 114.139 -1 -23.6871 114.099 977 -24.3895 114.139 TC -24.4000 114.200 7 14 172
1953079S15119 1953 15 SI WA NOT_NAMED 1953-03-23 00:00:00 TS -24.3202 114.169 main 0 0 O_____P__OP___ jtwc_sh SH161953 -24.6000 114.200 -1 -23.8995 114.095 978 -24.6000 114.200 TC -24.6014 114.250 7 12 171
1953079S15119 1953 15 SI WA NOT_NAMED 1953-03-23 01:00:00 TS -24.5106 114.207 980 bom main 0 0 P_____O__PP___ SH161953 -24.7869 114.261 -1 -24.1000 114.100 980 -24.7869 114.261 TC -24.7880 114.296 7 11 168
1953079S15119 1953 15 SI WA NOT_NAMED 1953-03-23 03:00:00 TS -24.8454 114.289 main 0 0 P_____P__PP___ SH161953 -25.1025 114.373 -1 -24.4637 114.146 -25.1025 114.373 TC -25.1236 114.377 7 10 167
1953079S15119 1953 15 SI WA NOT_NAMED 1953-03-23 06:00:00 TS -25.2805 114.407 main 0 0 O_____P__OP___ jtwc_sh SH161953 -25.5000 114.500 -1 -24.9458 114.260 -25.5000 114.500 TC -25.5568 114.477 7 9 167
1953079S15119 1953 15 SI WA NOT_NAMED 1953-03-23 07:00:00 TS -25.4251 114.437 bom main 0 0 P_____O__PP___ SH161953 -25.6364 114.528 -1 -25.1000 114.300 -25.6364 114.528 TC -25.6890 114.505 7 9 173
1953079S15119 1953 15 SI WA NOT_NAMED 1953-03-23 09:00:00 TS -25.7121 114.477 main 0 0 P_____P__PP___ SH161953 -25.9000 114.565 -1 -25.4267 114.338 -25.9000 114.565 TC -25.9449 114.556 7 9 175
1953079S15119 1953 15 SI WA NOT_NAMED 1953-03-23 11:00:00 TS -25.9976 114.504 main 0 0 P_____P__PO___ SH161953 -26.1636 114.589 -1 -25.7500 114.360 -26.1636 114.589 TC -26.2000 114.600 7 9 174
1953079S15119 1953 15 SI WA NOT_NAMED 1953-03-23 12:00:00 TS -26.1451 114.518 main 0 0 O_____P__OP___ jtwc_sh SH161953 -26.3000 114.600 -1 -25.9107 114.368 -26.3000 114.600 TC -26.3438 114.626 7 9 175
1953079S15119 1953 15 SI WA NOT_NAMED 1953-03-23 15:00:00 TS -26.6018 114.560 main 0 0 P_____P__PP___ SH161953 -26.7500 114.650 -1 -26.3902 114.385 -26.7500 114.650 TC -26.7691 114.694 7 9 175
1953079S15119 1953 15 SI WA NOT_NAMED 1953-03-23 18:00:00 TS -27.0575 114.602 main 0 0 O_____P__OP___ jtwc_sh SH161953 -27.2000 114.700 -1 -26.8687 114.409 -27.2000 114.700 TC -27.1903 114.746 7 9 175
1953079S15119 1953 15 SI WA NOT_NAMED 1953-03-23 21:00:00 TS -27.4918 114.653 main 0 0 P_____P__PP___ SH161953 -27.5925 114.757 -1 -27.3495 114.458 -27.5925 114.757 TC -27.6136 114.783 7 9 174
1953079S15119 1953 15 SI WA NOT_NAMED 1953-03-23 23:00:00 TS -27.7850 114.692 main 0 0 P_____P__PO___ SH161953 -27.8579 114.789 -1 -27.6730 114.516 -27.8579 114.789 TC -27.9000 114.800 7 9 172
1953079S15119 1953 15 SI WA NOT_NAMED 1953-03-24 00:00:00 TS -27.9370 114.711 main 0 0 O_____P__OP___ jtwc_sh SH161953 -28.0000 114.800 -1 -27.8360 114.554 -28.0000 114.800 TC -28.0491 114.800 7 9 175
1953079S15119 1953 15 SI WA NOT_NAMED 1953-03-24 01:00:00 TS -28.0976 114.730 998 bom main 0 0 P_____O__PP___ SH161953 -28.1605 114.806 -1 -28.0000 114.600 998 -28.1605 114.806 TC -28.1995 114.796 7 10 174
1953079S15119 1953 15 SI WA NOT_NAMED 1953-03-24 03:00:00 TS -28.4287 114.772 main 0 0 P_____P__PP___ SH161953 -28.5000 114.808 -1 -28.3378 114.722 -28.5000 114.808 TC -28.5029 114.784 7 10 173
1953079S15119 1953 15 SI WA NOT_NAMED 1953-03-24 06:00:00 TS -28.9195 114.839 main 0 0 O_____P__OP___ jtwc_sh SH161953 -29.0000 114.800 -1 -28.8383 114.930 -29.0000 114.800 TC -28.9592 114.767 7 10 173
1953079S15119 1953 15 SI WA NOT_NAMED 1953-03-24 07:00:00 TS -29.0713 114.861 bom main 0 0 P_____O__PP___ SH161953 -29.1421 114.792 -1 -29.0000 115.000 -29.1421 114.792 TC -29.1103 114.765 7 9 172
1953079S15119 1953 15 SI WA NOT_NAMED 1953-03-24 09:00:00 TS -29.3575 114.908 main 9 0 P_____P__PP___ SH161953 -29.4075 114.778 -1 -29.2834 115.151 -29.4075 114.778 TC -29.4087 114.772 7 9 170
1953079S15119 1953 15 SI WA NOT_NAMED 1953-03-24 11:00:00 TS -29.6335 114.969 main 0 0 P_____P__PO___ SH161953 -29.6662 114.783 -1 -29.5440 115.306 -29.6662 114.783 TC -29.7000 114.800 7 9 165
1953079S15119 1953 15 SI WA NOT_NAMED 1953-03-24 12:00:00 TS -29.7679 115.030 main 0 0 O_____P__OP___ jtwc_sh SH161953 -29.8000 114.800 -1 -29.6694 115.382 -29.8000 114.800 TC -29.8422 114.824 7 9 159
1953079S15119 1953 15 SI WA NOT_NAMED 1953-03-24 15:00:00 TS -30.1825 115.212 main 0 0 P_____P__PP___ SH161953 -30.2351 114.919 -1 -30.0441 115.599 -30.2351 114.919 TC -30.2558 114.934 7 9 158
1953079S15119 1953 15 SI WA NOT_NAMED 1953-03-24 18:00:00 TS -30.5964 115.421 main 0 0 O_____P__OP___ jtwc_sh SH161953 -30.7000 115.100 -1 -30.4476 115.774 -30.7000 115.100 TC -30.6543 115.088 7 9 155
1953079S15119 1953 15 SI WA NOT_NAMED 1953-03-24 21:00:00 TS -31.0081 115.660 main 0 0 ______P___P___ SH161953 -1 -30.9202 115.883 TC -31.0433 115.271 7 9 154
1953079S15119 1953 15 SI WA NOT_NAMED 1953-03-24 22:00:00 TS -31.1537 115.737 bom main 0 0 ______O___P___ SH161953 -1 -31.1000 115.900 TC -31.1718 115.335 7 10 159
1953079S15119 1953 15 SI WA NOT_NAMED 1953-03-24 23:00:00 TS -31.3151 115.801 main 0 0 ______P___O___ SH161953 -1 -31.2924 115.906 TC -31.3000 115.400 7 11 157
1953079S15119 1953 15 SI WA NOT_NAMED 1953-03-25 00:00:00 TS -31.4960 115.903 main 0 0 ______P_______ -1 -31.4939 115.905 7 12 167
1953079S15119 1953 15 SI WA NOT_NAMED 1953-03-25 01:00:00 NR -31.7000 115.900 1004 bom main 0 ______O_______ -1 -31.7000 115.900 1004 7 12 187

About IBTrACS Database

This database is a web-friendly format of International Best Track Archive for Climate Stewardship (IBTrACS), a global best track data archive curated by NOAA dating back to 1842.

Updated: 2021-12-03